sensor_id;sensor_type;location;lat;lon;timestamp;temperature;humidity
23669;DHT22;12011;47.422;15.018;2023-02-26T00:00:21;2.20;99.90
23669;DHT22;12011;47.422;15.018;2023-02-26T00:02:50;-0.20;99.90
23669;DHT22;12011;47.422;15.018;2023-02-26T00:05:22;2.30;99.90
23669;DHT22;12011;47.422;15.018;2023-02-26T00:07:52;0.00;99.90
23669;DHT22;12011;47.422;15.018;2023-02-26T00:10:21;1.60;99.90
23669;DHT22;12011;47.422;15.018;2023-02-26T00:12:51;2.60;99.90
23669;DHT22;12011;47.422;15.018;2023-02-26T00:15:21;0.30;99.90
23669;DHT22;12011;47.422;15.018;2023-02-26T00:18:00;-0.50;99.90
23669;DHT22;12011;47.422;15.018;2023-02-26T00:20:36;1.50;99.90
23669;DHT22;12011;47.422;15.018;2023-02-26T00:23:07;-0.30;99.90
23669;DHT22;12011;47.422;15.018;2023-02-26T00:25:39;0.50;99.90
23669;DHT22;12011;47.422;15.018;2023-02-26T00:28:09;0.70;99.90
23669;DHT22;12011;47.422;15.018;2023-02-26T00:30:40;-0.50;99.90
23669;DHT22;12011;47.422;15.018;2023-02-26T00:33:12;-0.60;99.90
23669;DHT22;12011;47.422;15.018;2023-02-26T00:35:45;0.50;99.90
23669;DHT22;12011;47.422;15.018;2023-02-26T00:38:16;1.10;99.90
23669;DHT22;12011;47.422;15.018;2023-02-26T00:40:48;0.30;99.90
23669;DHT22;12011;47.422;15.018;2023-02-26T00:43:22;0.10;99.90
23669;DHT22;12011;47.422;15.018;2023-02-26T00:46:02;-0.40;99.90
23669;DHT22;12011;47.422;15.018;2023-02-26T00:48:50;1.00;99.90
23669;DHT22;12011;47.422;15.018;2023-02-26T00:51:31;1.40;99.90
23669;DHT22;12011;47.422;15.018;2023-02-26T00:54:15;1.30;99.90
23669;DHT22;12011;47.422;15.018;2023-02-26T00:56:50;1.90;99.90
23669;DHT22;12011;47.422;15.018;2023-02-26T00:59:21;1.00;99.90
23669;DHT22;12011;47.422;15.018;2023-02-26T01:01:52;0.40;99.90
23669;DHT22;12011;47.422;15.018;2023-02-26T01:04:23;2.60;99.90
23669;DHT22;12011;47.422;15.018;2023-02-26T01:06:57;-0.70;99.90
23669;DHT22;12011;47.422;15.018;2023-02-26T01:09:29;0.50;99.90
23669;DHT22;12011;47.422;15.018;2023-02-26T01:12:03;0.00;99.90
23669;DHT22;12011;47.422;15.018;2023-02-26T01:14:35;-0.60;99.90
23669;DHT22;12011;47.422;15.018;2023-02-26T01:17:12;-0.90;99.90
23669;DHT22;12011;47.422;15.018;2023-02-26T01:19:50;0.70;99.90
23669;DHT22;12011;47.422;15.018;2023-02-26T01:22:30;-0.60;99.90
23669;DHT22;12011;47.422;15.018;2023-02-26T01:25:05;1.80;99.90
23669;DHT22;12011;47.422;15.018;2023-02-26T01:27:37;1.70;99.90
23669;DHT22;12011;47.422;15.018;2023-02-26T01:30:09;-1.10;99.90
23669;DHT22;12011;47.422;15.018;2023-02-26T01:32:44;0.30;99.90
23669;DHT22;12011;47.422;15.018;2023-02-26T01:35:28;-0.60;99.90
23669;DHT22;12011;47.422;15.018;2023-02-26T01:38:17;0.50;99.90
23669;DHT22;12011;47.422;15.018;2023-02-26T01:41:12;-0.70;99.90
23669;DHT22;12011;47.422;15.018;2023-02-26T01:43:56;-0.60;99.90
23669;DHT22;12011;47.422;15.018;2023-02-26T01:46:38;-0.20;99.90
23669;DHT22;12011;47.422;15.018;2023-02-26T01:49:18;1.80;99.90
23669;DHT22;12011;47.422;15.018;2023-02-26T01:51:53;0.20;99.90
23669;DHT22;12011;47.422;15.018;2023-02-26T01:54:29;0.90;99.90
23669;DHT22;12011;47.422;15.018;2023-02-26T01:57:03;2.60;99.90
23669;DHT22;12011;47.422;15.018;2023-02-26T01:59:37;0.80;99.90
23669;DHT22;12011;47.422;15.018;2023-02-26T02:02:11;-0.10;99.90
23669;DHT22;12011;47.422;15.018;2023-02-26T02:04:43;0.80;99.90
23669;DHT22;12011;47.422;15.018;2023-02-26T02:07:14;-1.10;99.90
23669;DHT22;12011;47.422;15.018;2023-02-26T02:09:48;1.70;99.90
23669;DHT22;12011;47.422;15.018;2023-02-26T02:12:29;0.80;99.90
23669;DHT22;12011;47.422;15.018;2023-02-26T02:15:12;-0.90;99.90
23669;DHT22;12011;47.422;15.018;2023-02-26T02:17:50;0.10;99.90
23669;DHT22;12011;47.422;15.018;2023-02-26T02:23:46;-1.30;99.90
23669;DHT22;12011;47.422;15.018;2023-02-26T02:26:41;2.30;99.90
23669;DHT22;12011;47.422;15.018;2023-02-26T02:32:43;-0.90;99.90
23669;DHT22;12011;47.422;15.018;2023-02-26T02:35:20;1.20;99.90
23669;DHT22;12011;47.422;15.018;2023-02-26T02:37:57;-0.70;99.90
23669;DHT22;12011;47.422;15.018;2023-02-26T02:40:35;1.50;99.90
23669;DHT22;12011;47.422;15.018;2023-02-26T02:43:12;1.30;99.90
23669;DHT22;12011;47.422;15.018;2023-02-26T02:45:48;1.90;99.90
23669;DHT22;12011;47.422;15.018;2023-02-26T02:48:27;1.30;99.90
23669;DHT22;12011;47.422;15.018;2023-02-26T02:51:02;1.40;99.90
23669;DHT22;12011;47.422;15.018;2023-02-26T02:53:37;1.40;99.90
23669;DHT22;12011;47.422;15.018;2023-02-26T02:56:13;1.00;99.90
23669;DHT22;12011;47.422;15.018;2023-02-26T02:58:50;0.70;99.90
23669;DHT22;12011;47.422;15.018;2023-02-26T03:01:25;2.50;99.90
23669;DHT22;12011;47.422;15.018;2023-02-26T03:04:04;0.20;99.90
23669;DHT22;12011;47.422;15.018;2023-02-26T03:06:38;1.60;99.90
23669;DHT22;12011;47.422;15.018;2023-02-26T03:09:09;1.30;99.90
23669;DHT22;12011;47.422;15.018;2023-02-26T03:11:41;0.10;99.90
23669;DHT22;12011;47.422;15.018;2023-02-26T03:14:12;1.50;99.90
23669;DHT22;12011;47.422;15.018;2023-02-26T03:17:08;1.20;99.90
23669;DHT22;12011;47.422;15.018;2023-02-26T03:20:04;-0.90;99.90
23669;DHT22;12011;47.422;15.018;2023-02-26T03:22:43;1.60;99.90
23669;DHT22;12011;47.422;15.018;2023-02-26T03:25:28;0.60;99.90
23669;DHT22;12011;47.422;15.018;2023-02-26T03:28:09;1.30;99.90
23669;DHT22;12011;47.422;15.018;2023-02-26T03:30:49;1.80;99.90
23669;DHT22;12011;47.422;15.018;2023-02-26T03:33:29;-1.30;99.90
23669;DHT22;12011;47.422;15.018;2023-02-26T03:36:10;1.30;99.90
23669;DHT22;12011;47.422;15.018;2023-02-26T03:39:00;1.50;99.90
23669;DHT22;12011;47.422;15.018;2023-02-26T03:41:37;2.40;99.90
23669;DHT22;12011;47.422;15.018;2023-02-26T03:44:14;-0.20;99.90
23669;DHT22;12011;47.422;15.018;2023-02-26T03:46:54;0.60;99.90
23669;DHT22;12011;47.422;15.018;2023-02-26T03:49:30;1.80;99.90
23669;DHT22;12011;47.422;15.018;2023-02-26T03:52:06;2.10;99.90
23669;DHT22;12011;47.422;15.018;2023-02-26T03:55:01;1.90;99.90
23669;DHT22;12011;47.422;15.018;2023-02-26T03:57:51;1.60;99.90
23669;DHT22;12011;47.422;15.018;2023-02-26T04:00:32;-0.70;99.90
23669;DHT22;12011;47.422;15.018;2023-02-26T04:03:10;-0.20;99.90
23669;DHT22;12011;47.422;15.018;2023-02-26T04:05:47;0.50;99.90
23669;DHT22;12011;47.422;15.018;2023-02-26T04:08:33;1.30;99.90
23669;DHT22;12011;47.422;15.018;2023-02-26T04:11:05;0.90;99.90
23669;DHT22;12011;47.422;15.018;2023-02-26T04:13:38;-0.20;99.90
23669;DHT22;12011;47.422;15.018;2023-02-26T04:16:08;1.50;99.90
23669;DHT22;12011;47.422;15.018;2023-02-26T04:18:37;1.50;99.90
23669;DHT22;12011;47.422;15.018;2023-02-26T04:21:11;1.60;99.90
23669;DHT22;12011;47.422;15.018;2023-02-26T04:23:43;1.50;99.90
23669;DHT22;12011;47.422;15.018;2023-02-26T04:26:13;0.50;99.90
23669;DHT22;12011;47.422;15.018;2023-02-26T04:28:45;1.20;99.90
23669;DHT22;12011;47.422;15.018;2023-02-26T04:31:15;1.40;99.90
23669;DHT22;12011;47.422;15.018;2023-02-26T04:33:45;0.10;99.90
23669;DHT22;12011;47.422;15.018;2023-02-26T04:36:15;1.80;99.90
23669;DHT22;12011;47.422;15.018;2023-02-26T04:38:47;1.70;99.90
23669;DHT22;12011;47.422;15.018;2023-02-26T04:41:16;0.60;99.90
23669;DHT22;12011;47.422;15.018;2023-02-26T04:43:48;1.20;99.90
23669;DHT22;12011;47.422;15.018;2023-02-26T04:46:27;0.60;99.90
23669;DHT22;12011;47.422;15.018;2023-02-26T04:48:57;0.00;99.90
23669;DHT22;12011;47.422;15.018;2023-02-26T04:51:26;-0.40;99.90
23669;DHT22;12011;47.422;15.018;2023-02-26T04:53:59;1.10;99.90
23669;DHT22;12011;47.422;15.018;2023-02-26T04:56:28;-0.60;99.90
23669;DHT22;12011;47.422;15.018;2023-02-26T04:59:00;0.90;99.90
23669;DHT22;12011;47.422;15.018;2023-02-26T05:01:30;1.10;99.90
23669;DHT22;12011;47.422;15.018;2023-02-26T05:04:00;0.80;99.90
23669;DHT22;12011;47.422;15.018;2023-02-26T05:06:29;0.60;99.90
23669;DHT22;12011;47.422;15.018;2023-02-26T05:09:04;2.00;99.90
23669;DHT22;12011;47.422;15.018;2023-02-26T05:11:34;0.30;99.90
23669;DHT22;12011;47.422;15.018;2023-02-26T05:14:07;-1.80;99.90
23669;DHT22;12011;47.422;15.018;2023-02-26T05:16:39;-1.00;99.90
23669;DHT22;12011;47.422;15.018;2023-02-26T05:19:09;-0.70;99.90
23669;DHT22;12011;47.422;15.018;2023-02-26T05:21:45;1.60;99.90
23669;DHT22;12011;47.422;15.018;2023-02-26T05:24:24;1.20;99.90
23669;DHT22;12011;47.422;15.018;2023-02-26T05:26:54;-0.70;99.90
23669;DHT22;12011;47.422;15.018;2023-02-26T05:29:24;-1.50;99.90
23669;DHT22;12011;47.422;15.018;2023-02-26T05:31:54;-1.30;99.90
23669;DHT22;12011;47.422;15.018;2023-02-26T05:34:24;0.50;99.90
23669;DHT22;12011;47.422;15.018;2023-02-26T05:36:53;0.70;99.90
23669;DHT22;12011;47.422;15.018;2023-02-26T05:39:25;1.60;99.90
23669;DHT22;12011;47.422;15.018;2023-02-26T05:41:54;0.10;99.90
23669;DHT22;12011;47.422;15.018;2023-02-26T05:44:24;-1.90;99.90
23669;DHT22;12011;47.422;15.018;2023-02-26T05:46:54;-2.60;99.90
23669;DHT22;12011;47.422;15.018;2023-02-26T05:49:24;-1.80;99.90
23669;DHT22;12011;47.422;15.018;2023-02-26T05:51:53;0.20;99.90
23669;DHT22;12011;47.422;15.018;2023-02-26T05:54:25;0.90;99.90
23669;DHT22;12011;47.422;15.018;2023-02-26T05:56:55;0.20;99.90
23669;DHT22;12011;47.422;15.018;2023-02-26T05:59:24;-1.80;99.90
23669;DHT22;12011;47.422;15.018;2023-02-26T06:01:54;-2.20;99.90
23669;DHT22;12011;47.422;15.018;2023-02-26T06:04:24;-2.30;99.90
23669;DHT22;12011;47.422;15.018;2023-02-26T06:06:53;-1.90;99.90
23669;DHT22;12011;47.422;15.018;2023-02-26T06:09:25;0.10;99.90
23669;DHT22;12011;47.422;15.018;2023-02-26T06:11:55;-0.80;99.90
23669;DHT22;12011;47.422;15.018;2023-02-26T06:14:25;0.80;99.90
23669;DHT22;12011;47.422;15.018;2023-02-26T06:16:55;-1.40;99.90
23669;DHT22;12011;47.422;15.018;2023-02-26T06:19:25;-0.20;99.90
23669;DHT22;12011;47.422;15.018;2023-02-26T06:21:54;-1.90;99.90
23669;DHT22;12011;47.422;15.018;2023-02-26T06:24:26;0.10;99.90
23669;DHT22;12011;47.422;15.018;2023-02-26T06:26:56;0.10;99.90
23669;DHT22;12011;47.422;15.018;2023-02-26T06:29:25;1.00;99.90
23669;DHT22;12011;47.422;15.018;2023-02-26T06:31:55;-1.50;99.90
23669;DHT22;12011;47.422;15.018;2023-02-26T06:34:24;0.20;99.90
23669;DHT22;12011;47.422;15.018;2023-02-26T06:36:53;1.50;99.90
23669;DHT22;12011;47.422;15.018;2023-02-26T06:39:26;-1.50;99.90
23669;DHT22;12011;47.422;15.018;2023-02-26T06:41:55;1.10;99.90
23669;DHT22;12011;47.422;15.018;2023-02-26T06:44:25;1.30;99.90
23669;DHT22;12011;47.422;15.018;2023-02-26T06:46:54;1.10;99.90
23669;DHT22;12011;47.422;15.018;2023-02-26T06:49:23;-0.40;97.20
23669;DHT22;12011;47.422;15.018;2023-02-26T06:51:53;-0.10;99.50
23669;DHT22;12011;47.422;15.018;2023-02-26T06:54:22;2.00;99.90
23669;DHT22;12011;47.422;15.018;2023-02-26T06:56:54;1.30;95.60
23669;DHT22;12011;47.422;15.018;2023-02-26T06:59:25;1.50;94.40
23669;DHT22;12011;47.422;15.018;2023-02-26T07:01:54;-0.30;98.00
23669;DHT22;12011;47.422;15.018;2023-02-26T07:04:24;2.50;99.90
23669;DHT22;12011;47.422;15.018;2023-02-26T07:06:54;0.40;96.30
23669;DHT22;12011;47.422;15.018;2023-02-26T07:09:23;1.80;97.10
23669;DHT22;12011;47.422;15.018;2023-02-26T07:11:55;1.40;90.50
23669;DHT22;12011;47.422;15.018;2023-02-26T07:14:25;1.40;89.40
23669;DHT22;12011;47.422;15.018;2023-02-26T07:16:54;-0.30;91.00
23669;DHT22;12011;47.422;15.018;2023-02-26T07:19:24;1.60;87.80
23669;DHT22;12011;47.422;15.018;2023-02-26T07:21:54;0.30;81.90
23669;DHT22;12011;47.422;15.018;2023-02-26T07:24:25;0.80;75.50
23669;DHT22;12011;47.422;15.018;2023-02-26T07:26:57;1.80;89.10
23669;DHT22;12011;47.422;15.018;2023-02-26T07:29:26;2.60;76.80
23669;DHT22;12011;47.422;15.018;2023-02-26T07:31:56;1.70;73.60
23669;DHT22;12011;47.422;15.018;2023-02-26T07:34:25;3.20;67.80
23669;DHT22;12011;47.422;15.018;2023-02-26T07:36:56;3.10;67.10
23669;DHT22;12011;47.422;15.018;2023-02-26T07:39:26;3.00;61.60
23669;DHT22;12011;47.422;15.018;2023-02-26T07:41:58;4.50;58.50
23669;DHT22;12011;47.422;15.018;2023-02-26T07:44:28;4.70;53.50
23669;DHT22;12011;47.422;15.018;2023-02-26T07:46:58;5.20;48.90
23669;DHT22;12011;47.422;15.018;2023-02-26T07:49:28;6.10;47.40
23669;DHT22;12011;47.422;15.018;2023-02-26T07:51:59;6.50;42.70
23669;DHT22;12011;47.422;15.018;2023-02-26T07:54:29;6.30;43.90
23669;DHT22;12011;47.422;15.018;2023-02-26T07:57:01;6.20;43.80
23669;DHT22;12011;47.422;15.018;2023-02-26T07:59:31;6.10;46.20
23669;DHT22;12011;47.422;15.018;2023-02-26T08:02:01;7.10;44.80
23669;DHT22;12011;47.422;15.018;2023-02-26T08:04:30;6.60;43.50
23669;DHT22;12011;47.422;15.018;2023-02-26T08:06:59;6.20;48.40
23669;DHT22;12011;47.422;15.018;2023-02-26T08:09:29;6.80;49.20
23669;DHT22;12011;47.422;15.018;2023-02-26T08:12:01;6.90;50.30
23669;DHT22;12011;47.422;15.018;2023-02-26T08:17:01;7.80;48.00
23669;DHT22;12011;47.422;15.018;2023-02-26T08:19:30;5.30;44.00
23669;DHT22;12011;47.422;15.018;2023-02-26T08:21:59;9.20;45.10
23669;DHT22;12011;47.422;15.018;2023-02-26T08:24:29;7.90;41.00
23669;DHT22;12011;47.422;15.018;2023-02-26T08:27:01;7.70;44.10
23669;DHT22;12011;47.422;15.018;2023-02-26T08:29:30;7.80;45.70
23669;DHT22;12011;47.422;15.018;2023-02-26T08:32:00;6.50;46.60
23669;DHT22;12011;47.422;15.018;2023-02-26T08:34:29;6.10;48.70
23669;DHT22;12011;47.422;15.018;2023-02-26T08:36:58;6.00;46.20
23669;DHT22;12011;47.422;15.018;2023-02-26T08:39:28;6.20;46.80
23669;DHT22;12011;47.422;15.018;2023-02-26T08:42:06;6.30;48.10
23669;DHT22;12011;47.422;15.018;2023-02-26T08:44:37;6.20;45.10
23669;DHT22;12011;47.422;15.018;2023-02-26T08:47:06;6.60;46.30
23669;DHT22;12011;47.422;15.018;2023-02-26T08:49:36;6.20;44.10
23669;DHT22;12011;47.422;15.018;2023-02-26T08:52:05;6.30;45.10
23669;DHT22;12011;47.422;15.018;2023-02-26T08:54:35;6.10;47.40
23669;DHT22;12011;47.422;15.018;2023-02-26T08:57:07;6.00;47.80
23669;DHT22;12011;47.422;15.018;2023-02-26T08:59:36;5.30;48.90
23669;DHT22;12011;47.422;15.018;2023-02-26T09:02:06;5.90;45.00
23669;DHT22;12011;47.422;15.018;2023-02-26T09:04:37;6.30;46.60
23669;DHT22;12011;47.422;15.018;2023-02-26T09:07:06;6.80;45.10
23669;DHT22;12011;47.422;15.018;2023-02-26T09:09:36;7.10;45.20
23669;DHT22;12011;47.422;15.018;2023-02-26T09:12:08;8.20;43.90
23669;DHT22;12011;47.422;15.018;2023-02-26T09:14:39;8.10;43.30
23669;DHT22;12011;47.422;15.018;2023-02-26T09:17:09;8.40;42.70
23669;DHT22;12011;47.422;15.018;2023-02-26T09:19:38;8.40;41.40
23669;DHT22;12011;47.422;15.018;2023-02-26T09:22:08;9.00;38.30
23669;DHT22;12011;47.422;15.018;2023-02-26T09:24:37;10.10;36.60
23669;DHT22;12011;47.422;15.018;2023-02-26T09:27:09;9.50;37.30
23669;DHT22;12011;47.422;15.018;2023-02-26T09:29:39;9.80;36.90
23669;DHT22;12011;47.422;15.018;2023-02-26T09:32:08;10.00;35.50
23669;DHT22;12011;47.422;15.018;2023-02-26T09:34:38;11.40;34.90
23669;DHT22;12011;47.422;15.018;2023-02-26T09:37:09;13.10;32.70
23669;DHT22;12011;47.422;15.018;2023-02-26T09:39:38;13.40;29.50
23669;DHT22;12011;47.422;15.018;2023-02-26T09:42:23;13.30;30.00
23669;DHT22;12011;47.422;15.018;2023-02-26T09:44:59;11.70;30.80
23669;DHT22;12011;47.422;15.018;2023-02-26T09:47:34;11.80;32.40
23669;DHT22;12011;47.422;15.018;2023-02-26T09:50:15;11.70;30.00
23669;DHT22;12011;47.422;15.018;2023-02-26T09:52:54;11.60;31.00
23669;DHT22;12011;47.422;15.018;2023-02-26T09:55:30;11.50;29.70
23669;DHT22;12011;47.422;15.018;2023-02-26T09:58:19;12.90;28.70
23669;DHT22;12011;47.422;15.018;2023-02-26T10:00:59;13.60;28.30
23669;DHT22;12011;47.422;15.018;2023-02-26T10:03:48;12.90;28.50
23669;DHT22;12011;47.422;15.018;2023-02-26T10:06:27;11.60;30.00
23669;DHT22;12011;47.422;15.018;2023-02-26T10:09:14;10.80;31.30
23669;DHT22;12011;47.422;15.018;2023-02-26T10:12:01;9.30;32.20
23669;DHT22;12011;47.422;15.018;2023-02-26T10:14:39;8.90;36.90
23669;DHT22;12011;47.422;15.018;2023-02-26T10:17:19;7.60;39.40
23669;DHT22;12011;47.422;15.018;2023-02-26T10:19:55;9.10;36.10
23669;DHT22;12011;47.422;15.018;2023-02-26T10:22:39;9.80;32.50
23669;DHT22;12011;47.422;15.018;2023-02-26T10:25:15;11.00;33.70
23669;DHT22;12011;47.422;15.018;2023-02-26T10:27:54;11.10;34.30
23669;DHT22;12011;47.422;15.018;2023-02-26T10:30:36;10.20;32.00
23669;DHT22;12011;47.422;15.018;2023-02-26T10:33:18;11.10;29.60
23669;DHT22;12011;47.422;15.018;2023-02-26T10:35:53;10.70;29.90
23669;DHT22;12011;47.422;15.018;2023-02-26T10:38:28;10.30;31.30
23669;DHT22;12011;47.422;15.018;2023-02-26T10:41:02;10.40;30.70
23669;DHT22;12011;47.422;15.018;2023-02-26T10:43:38;10.50;31.60
23669;DHT22;12011;47.422;15.018;2023-02-26T10:46:23;8.60;34.10
23669;DHT22;12011;47.422;15.018;2023-02-26T10:52:12;8.80;34.60
23669;DHT22;12011;47.422;15.018;2023-02-26T10:55:00;7.50;37.30
23669;DHT22;12011;47.422;15.018;2023-02-26T10:57:36;8.60;34.10
23669;DHT22;12011;47.422;15.018;2023-02-26T11:00:15;10.10;31.70
23669;DHT22;12011;47.422;15.018;2023-02-26T11:02:52;9.80;32.40
23669;DHT22;12011;47.422;15.018;2023-02-26T11:05:25;10.00;32.90
23669;DHT22;12011;47.422;15.018;2023-02-26T11:07:57;9.30;33.20
23669;DHT22;12011;47.422;15.018;2023-02-26T11:10:39;9.10;36.00
23669;DHT22;12011;47.422;15.018;2023-02-26T11:13:10;9.00;35.40
23669;DHT22;12011;47.422;15.018;2023-02-26T11:15:40;8.30;36.20
23669;DHT22;12011;47.422;15.018;2023-02-26T11:18:18;10.60;34.00
23669;DHT22;12011;47.422;15.018;2023-02-26T11:20:54;10.80;33.00
23669;DHT22;12011;47.422;15.018;2023-02-26T11:23:28;11.60;30.50
23669;DHT22;12011;47.422;15.018;2023-02-26T11:26:02;12.00;30.70
23669;DHT22;12011;47.422;15.018;2023-02-26T11:28:36;12.30;31.70
23669;DHT22;12011;47.422;15.018;2023-02-26T11:31:15;12.00;30.00
23669;DHT22;12011;47.422;15.018;2023-02-26T11:33:52;10.90;31.60
23669;DHT22;12011;47.422;15.018;2023-02-26T11:36:28;9.50;33.20
23669;DHT22;12011;47.422;15.018;2023-02-26T11:39:22;9.20;34.60
23669;DHT22;12011;47.422;15.018;2023-02-26T11:41:57;7.80;35.70
23669;DHT22;12011;47.422;15.018;2023-02-26T11:44:34;6.50;42.50
23669;DHT22;12011;47.422;15.018;2023-02-26T11:47:10;6.20;46.30
23669;DHT22;12011;47.422;15.018;2023-02-26T11:49:50;5.40;48.50
23669;DHT22;12011;47.422;15.018;2023-02-26T11:52:27;5.00;47.80
23669;DHT22;12011;47.422;15.018;2023-02-26T11:55:01;4.70;50.00
23669;DHT22;12011;47.422;15.018;2023-02-26T11:57:32;6.10;51.90
23669;DHT22;12011;47.422;15.018;2023-02-26T12:00:20;5.00;53.10
23669;DHT22;12011;47.422;15.018;2023-02-26T12:02:59;5.30;52.30
23669;DHT22;12011;47.422;15.018;2023-02-26T12:05:35;4.60;52.80
23669;DHT22;12011;47.422;15.018;2023-02-26T12:08:16;5.50;52.00
23669;DHT22;12011;47.422;15.018;2023-02-26T12:10:59;5.00;51.60
23669;DHT22;12011;47.422;15.018;2023-02-26T12:13:40;4.20;52.30
23669;DHT22;12011;47.422;15.018;2023-02-26T12:16:21;4.00;55.70
23669;DHT22;12011;47.422;15.018;2023-02-26T12:19:04;3.20;56.90
23669;DHT22;12011;47.422;15.018;2023-02-26T12:22:01;4.50;58.70
23669;DHT22;12011;47.422;15.018;2023-02-26T12:25:10;3.60;55.00
23669;DHT22;12011;47.422;15.018;2023-02-26T12:31:21;3.50;52.70
23669;DHT22;12011;47.422;15.018;2023-02-26T12:34:20;3.20;54.00
23669;DHT22;12011;47.422;15.018;2023-02-26T12:37:16;3.50;57.40
23669;DHT22;12011;47.422;15.018;2023-02-26T12:40:04;3.30;64.80
23669;DHT22;12011;47.422;15.018;2023-02-26T12:42:51;3.40;53.50
23669;DHT22;12011;47.422;15.018;2023-02-26T12:45:46;3.30;56.90
23669;DHT22;12011;47.422;15.018;2023-02-26T12:48:52;3.60;56.40
23669;DHT22;12011;47.422;15.018;2023-02-26T12:52:27;3.20;52.10
23669;DHT22;12011;47.422;15.018;2023-02-26T12:55:20;3.30;49.40
23669;DHT22;12011;47.422;15.018;2023-02-26T12:58:11;3.30;51.10
23669;DHT22;12011;47.422;15.018;2023-02-26T13:01:10;3.10;53.60
23669;DHT22;12011;47.422;15.018;2023-02-26T13:04:03;3.30;56.30
23669;DHT22;12011;47.422;15.018;2023-02-26T13:10:27;3.10;50.60
23669;DHT22;12011;47.422;15.018;2023-02-26T13:13:28;2.70;51.20
23669;DHT22;12011;47.422;15.018;2023-02-26T13:16:12;2.90;52.30
23669;DHT22;12011;47.422;15.018;2023-02-26T13:18:55;3.50;55.60
23669;DHT22;12011;47.422;15.018;2023-02-26T13:21:36;2.90;54.90
23669;DHT22;12011;47.422;15.018;2023-02-26T13:24:17;3.30;52.40
23669;DHT22;12011;47.422;15.018;2023-02-26T13:26:53;2.60;54.40
23669;DHT22;12011;47.422;15.018;2023-02-26T13:29:30;3.30;53.80
23669;DHT22;12011;47.422;15.018;2023-02-26T13:32:08;0.90;59.70
23669;DHT22;12011;47.422;15.018;2023-02-26T13:34:49;3.20;55.40
23669;DHT22;12011;47.422;15.018;2023-02-26T13:37:26;2.50;54.60
23669;DHT22;12011;47.422;15.018;2023-02-26T13:40:29;3.50;55.30
23669;DHT22;12011;47.422;15.018;2023-02-26T13:43:22;3.60;56.50
23669;DHT22;12011;47.422;15.018;2023-02-26T13:46:12;2.20;53.10
23669;DHT22;12011;47.422;15.018;2023-02-26T13:48:57;2.90;56.40
23669;DHT22;12011;47.422;15.018;2023-02-26T13:51:34;3.00;55.20
23669;DHT22;12011;47.422;15.018;2023-02-26T13:54:08;3.20;54.20
23669;DHT22;12011;47.422;15.018;2023-02-26T13:57:19;2.80;58.00
23669;DHT22;12011;47.422;15.018;2023-02-26T13:59:57;2.60;57.60
23669;DHT22;12011;47.422;15.018;2023-02-26T14:02:43;3.90;57.60
23669;DHT22;12011;47.422;15.018;2023-02-26T14:08:29;3.20;54.20
23669;DHT22;12011;47.422;15.018;2023-02-26T14:14:26;1.60;51.20
23669;DHT22;12011;47.422;15.018;2023-02-26T14:17:18;2.20;56.50
23669;DHT22;12011;47.422;15.018;2023-02-26T14:20:15;1.70;52.60
23669;DHT22;12011;47.422;15.018;2023-02-26T14:22:50;4.10;55.60
23669;DHT22;12011;47.422;15.018;2023-02-26T14:25:30;1.90;53.40
23669;DHT22;12011;47.422;15.018;2023-02-26T14:28:32;1.70;55.00
23669;DHT22;12011;47.422;15.018;2023-02-26T14:31:14;2.30;51.30
23669;DHT22;12011;47.422;15.018;2023-02-26T14:34:10;2.60;55.30
23669;DHT22;12011;47.422;15.018;2023-02-26T14:36:47;2.00;53.20
23669;DHT22;12011;47.422;15.018;2023-02-26T14:39:33;3.30;55.10
23669;DHT22;12011;47.422;15.018;2023-02-26T14:42:07;2.90;54.70
23669;DHT22;12011;47.422;15.018;2023-02-26T14:44:43;2.30;55.70
23669;DHT22;12011;47.422;15.018;2023-02-26T14:47:17;3.00;57.80
23669;DHT22;12011;47.422;15.018;2023-02-26T14:49:48;2.40;59.50
23669;DHT22;12011;47.422;15.018;2023-02-26T14:52:50;3.60;58.20
23669;DHT22;12011;47.422;15.018;2023-02-26T14:55:48;2.50;54.10
23669;DHT22;12011;47.422;15.018;2023-02-26T14:58:46;1.70;54.70
23669;DHT22;12011;47.422;15.018;2023-02-26T15:01:45;2.40;60.00
23669;DHT22;12011;47.422;15.018;2023-02-26T15:08:08;2.20;57.70
23669;DHT22;12011;47.422;15.018;2023-02-26T15:11:00;0.50;56.00
23669;DHT22;12011;47.422;15.018;2023-02-26T15:14:03;2.60;61.80
23669;DHT22;12011;47.422;15.018;2023-02-26T15:17:02;3.00;69.70
23669;DHT22;12011;47.422;15.018;2023-02-26T15:19:55;2.50;68.10
23669;DHT22;12011;47.422;15.018;2023-02-26T15:22:49;2.40;73.30
23669;DHT22;12011;47.422;15.018;2023-02-26T15:25:29;2.10;66.40
23669;DHT22;12011;47.422;15.018;2023-02-26T15:28:03;2.70;67.80
23669;DHT22;12011;47.422;15.018;2023-02-26T15:30:36;1.00;70.00
23669;DHT22;12011;47.422;15.018;2023-02-26T15:33:12;0.90;72.60
23669;DHT22;12011;47.422;15.018;2023-02-26T15:35:48;1.90;78.50
23669;DHT22;12011;47.422;15.018;2023-02-26T15:38:19;3.10;83.80
23669;DHT22;12011;47.422;15.018;2023-02-26T15:40:52;1.00;75.00
23669;DHT22;12011;47.422;15.018;2023-02-26T15:43:26;1.90;80.80
23669;DHT22;12011;47.422;15.018;2023-02-26T15:45:57;2.10;84.20
23669;DHT22;12011;47.422;15.018;2023-02-26T15:48:30;2.40;83.70
23669;DHT22;12011;47.422;15.018;2023-02-26T15:51:07;3.30;87.50
23669;DHT22;12011;47.422;15.018;2023-02-26T15:53:41;2.30;76.00
23669;DHT22;12011;47.422;15.018;2023-02-26T15:56:16;0.40;80.30
23669;DHT22;12011;47.422;15.018;2023-02-26T15:58:53;1.70;90.70
23669;DHT22;12011;47.422;15.018;2023-02-26T16:01:26;-0.30;87.50
23669;DHT22;12011;47.422;15.018;2023-02-26T16:03:59;1.90;85.60
23669;DHT22;12011;47.422;15.018;2023-02-26T16:06:35;1.60;88.50
23669;DHT22;12011;47.422;15.018;2023-02-26T16:09:15;1.70;86.60
23669;DHT22;12011;47.422;15.018;2023-02-26T16:11:48;0.10;91.80
23669;DHT22;12011;47.422;15.018;2023-02-26T16:14:23;2.80;91.10
23669;DHT22;12011;47.422;15.018;2023-02-26T16:16:56;1.70;95.40
23669;DHT22;12011;47.422;15.018;2023-02-26T16:19:32;1.60;92.90
23669;DHT22;12011;47.422;15.018;2023-02-26T16:22:15;2.10;96.50
23669;DHT22;12011;47.422;15.018;2023-02-26T16:24:53;1.40;95.20
23669;DHT22;12011;47.422;15.018;2023-02-26T16:27:27;0.50;99.20
23669;DHT22;12011;47.422;15.018;2023-02-26T16:29:59;-0.50;99.90
23669;DHT22;12011;47.422;15.018;2023-02-26T16:32:33;2.40;99.90
23669;DHT22;12011;47.422;15.018;2023-02-26T16:35:10;1.10;99.90
23669;DHT22;12011;47.422;15.018;2023-02-26T16:37:49;-1.20;99.90
23669;DHT22;12011;47.422;15.018;2023-02-26T16:40:26;1.00;99.90
23669;DHT22;12011;47.422;15.018;2023-02-26T16:43:01;2.50;99.90
23669;DHT22;12011;47.422;15.018;2023-02-26T16:45:45;0.90;99.20
23669;DHT22;12011;47.422;15.018;2023-02-26T16:48:23;1.10;97.70
23669;DHT22;12011;47.422;15.018;2023-02-26T16:50:59;2.50;99.90
23669;DHT22;12011;47.422;15.018;2023-02-26T16:53:36;1.00;99.50
23669;DHT22;12011;47.422;15.018;2023-02-26T16:56:13;1.50;99.90